KSTL/STL METAR and TAF weather

Enter ICAO airport designator
Station Type Date Time Source
KSTL METAR 2020/09/23 18:51 UTC NOAA

KSTL 231851Z 23003KT 10SM FEW050 FEW080 BKN200 23/14 A3007 RMK AO2 SLP174 T02280144


Station Type Date Time Source
KSTL Decoded METAR 2020/09/23 18:51 UTC NOAA

LAMBERT-ST LOUIS INTERNATIONAL AIRPORT , MO, United States (KSTL) 38-45N 90-22W 171M
Sep 23, 2020 - 02:51 PM EDT / 2020.09.23 1851 UTC
Wind: from the SW (230 degrees) at 3 MPH (3 KT):0
Visibility: 10 mile(s):0
Sky conditions: mostly cloudy
Temperature: 73.0 F (22.8 C)
Dew Point: 57.9 F (14.4 C)
Relative Humidity: 59%
Pressure (altimeter): 30.07 in. Hg (1018 hPa)
ob: KSTL 231851Z 23003KT 10SM FEW050 FEW080 BKN200 23/14 A3007 RMK AO2 SLP174 T02280144
cycle: 19

Station Type Date Time Source
KSTL TAF 2020/09/23 18:27 UTC NOAA

TAF KSTL 231723Z 2318/2424 VRB04KT P6SM BKN060

Example: see airport list